Time;durP1;ratioP1;P1;durP2;ratioP2;P2;SDS_P1;SDS_P2;PMS_P1;PMS_P2;Temp;Humidity;BMP_temperature;BMP_pressure;BME280_temperature;BME280_humidity;BME280_pressure;Samples;Min_cycle;Max_cycle;Signal;HPM_P1;HPM_P2
2024/01/21 00:01:14;;;;;;;;;30.33;28.00;;;;;2.51;58.89;101953.22;5050176;28;45184;-79
2024/01/21 00:03:40;;;;;;;;;29.00;26.67;;;;;2.57;58.62;101968.72;5047022;28;45247;-75
2024/01/21 00:06:05;;;;;;;;;28.33;26.00;;;;;2.61;59.12;101965.94;5049625;28;45465;-77
2024/01/21 00:08:31;;;;;;;;;31.00;25.67;;;;;2.59;58.36;101961.63;5052504;28;45590;-77
2024/01/21 00:10:56;;;;;;;;;28.33;23.33;;;;;2.48;58.21;101930.59;5057427;28;44935;-75
2024/01/21 00:13:22;;;;;;;;;27.33;25.67;;;;;2.31;58.05;101885.81;5054587;28;44931;-77
2024/01/21 00:15:47;;;;;;;;;28.67;24.67;;;;;2.17;58.45;101840.91;5036589;28;45033;-76
2024/01/21 00:18:13;;;;;;;;;34.00;29.00;;;;;2.54;58.46;101880.44;5052407;28;45678;-78
2024/01/21 00:20:38;;;;;;;;;38.33;31.00;;;;;2.62;58.10;101894.13;5051817;28;45029;-77
2024/01/21 00:23:04;;;;;;;;;27.33;23.67;;;;;2.62;57.83;101899.38;5051624;28;44972;-77
2024/01/21 00:25:29;;;;;;;;;24.67;15.67;;;;;2.44;58.08;101880.00;5052882;28;45290;-78
2024/01/21 00:27:55;;;;;;;;;34.33;27.00;;;;;2.58;58.13;101916.16;5031136;28;45630;-77
2024/01/21 00:30:20;;;;;;;;;23.00;20.67;;;;;2.55;58.04;101902.31;5050581;28;45442;-79
2024/01/21 00:32:46;;;;;;;;;24.33;22.67;;;;;2.42;57.90;101871.34;5050177;28;45707;-77
2024/01/21 00:35:11;;;;;;;;;27.33;22.67;;;;;2.43;57.78;101877.44;5052393;28;45170;-78
2024/01/21 00:37:37;;;;;;;;;27.67;24.00;;;;;2.50;57.67;101913.00;5044796;28;45298;-78
2024/01/21 00:40:04;;;;;;;;;26.00;22.00;;;;;2.26;57.89;101886.00;5051394;28;45212;-78
2024/01/21 00:42:29;;;;;;;;;28.00;23.67;;;;;2.53;57.52;101925.16;5051792;28;45253;-78
2024/01/21 00:44:54;;;;;;;;;35.67;28.00;;;;;2.36;58.66;101886.47;5051878;28;45129;-78
2024/01/21 00:47:21;;;;;;;;;30.00;18.67;;;;;2.56;58.31;101927.63;5051935;28;45381;-78
2024/01/21 00:49:47;;;;;;;;;29.00;25.67;;;;;2.32;57.96;101884.91;5051884;28;45042;-75
2024/01/21 00:52:12;;;;;;;;;25.00;22.67;;;;;2.28;58.50;101871.06;5053985;28;45273;-77
2024/01/21 00:54:37;;;;;;;;;26.67;25.00;;;;;2.26;57.99;101872.03;5053405;28;44867;-74
2024/01/21 00:57:03;;;;;;;;;29.67;23.33;;;;;2.46;58.52;101892.22;5047558;28;45770;-77
2024/01/21 00:59:29;;;;;;;;;27.33;22.33;;;;;2.55;58.06;101908.41;5053982;28;45646;-77
2024/01/21 01:01:54;;;;;;;;;25.00;23.00;;;;;2.45;57.52;101907.09;5049647;28;45531;-74
2024/01/21 01:04:19;;;;;;;;;32.67;26.33;;;;;2.52;57.65;101923.44;5054085;28;45087;-78
2024/01/21 01:06:44;;;;;;;;;26.33;23.00;;;;;2.57;58.06;101922.31;5033583;28;46991;-77
2024/01/21 01:09:10;;;;;;;;;28.00;21.00;;;;;2.54;58.38;101906.69;5045875;28;45165;-76
2024/01/21 01:11:37;;;;;;;;;23.00;18.67;;;;;2.56;57.80;101918.00;5053348;28;45226;-76
2024/01/21 01:14:03;;;;;;;;;27.00;24.67;;;;;2.38;58.47;101889.88;5034013;28;45247;-77
2024/01/21 01:16:28;;;;;;;;;29.00;27.33;;;;;2.33;58.05;101886.59;5036053;28;47348;-74
2024/01/21 01:18:54;;;;;;;;;32.00;26.00;;;;;2.46;58.58;101918.44;5047616;28;45467;-75
2024/01/21 01:21:20;;;;;;;;;25.33;22.33;;;;;2.48;58.15;101927.97;5053088;28;44979;-74
2024/01/21 01:23:46;;;;;;;;;26.33;23.67;;;;;2.38;58.63;101913.50;5052875;28;45365;-75
2024/01/21 01:26:11;;;;;;;;;29.67;25.33;;;;;2.38;58.66;101913.50;5049140;28;45488;-77
2024/01/21 01:28:36;;;;;;;;;25.00;21.67;;;;;2.01;58.76;101848.59;5053117;28;45036;-76
2024/01/21 01:31:02;;;;;;;;;40.00;31.00;;;;;2.32;58.92;101905.88;5053835;28;45007;-78
2024/01/21 01:33:27;;;;;;;;;28.33;26.33;;;;;2.22;58.60;101891.44;5052339;28;45394;-76
2024/01/21 01:35:52;;;;;;;;;35.00;26.00;;;;;2.32;58.98;101900.63;5053093;28;45835;-74
2024/01/21 01:38:18;;;;;;;;;30.33;24.67;;;;;2.27;59.03;101923.59;5051602;28;44974;-76
2024/01/21 01:40:43;;;;;;;;;26.67;22.67;;;;;2.32;59.11;101924.25;5052790;28;45189;-76
2024/01/21 01:43:10;;;;;;;;;28.67;26.67;;;;;2.02;58.98;101877.38;5053921;28;45264;-75
2024/01/21 01:45:36;;;;;;;;;26.33;26.00;;;;;2.12;59.08;101876.06;5051116;28;45238;-76
2024/01/21 01:48:03;;;;;;;;;28.00;25.67;;;;;2.37;59.00;101911.78;5051331;28;45045;-75
2024/01/21 01:50:29;;;;;;;;;24.67;22.67;;;;;2.12;58.40;101878.69;5050630;28;45297;-77
2024/01/21 01:52:55;;;;;;;;;23.67;23.33;;;;;2.41;58.95;101926.53;5051341;28;45682;-74
2024/01/21 01:55:21;;;;;;;;;27.00;25.33;;;;;2.13;58.40;101885.66;5043847;28;45383;-79
2024/01/21 01:57:47;;;;;;;;;25.67;25.67;;;;;2.29;58.66;101909.50;5053049;28;46371;-77
2024/01/21 02:00:13;;;;;;;;;28.33;24.00;;;;;2.46;58.65;101928.94;5051171;28;44981;-75
2024/01/21 02:02:42;;;;;;;;;36.67;27.00;;;;;2.34;58.72;101909.31;5050403;28;45163;-77
2024/01/21 02:05:08;;;;;;;;;22.33;18.33;;;;;2.21;58.14;101897.63;5049222;28;46731;-76
2024/01/21 02:07:33;;;;;;;;;25.33;23.67;;;;;2.22;58.39;101894.94;5048460;28;45550;-77
2024/01/21 02:10:00;;;;;;;;;25.00;22.67;;;;;2.45;58.71;101943.84;5050353;28;45124;-78
2024/01/21 02:12:25;;;;;;;;;26.00;18.00;;;;;2.31;58.27;101915.53;5050840;28;45041;-77
2024/01/21 02:14:50;;;;;;;;;26.33;22.67;;;;;2.41;58.85;101932.63;5048972;28;45523;-76
2024/01/21 02:17:16;;;;;;;;;26.33;23.33;;;;;2.56;58.40;101948.63;5051463;28;45183;-79
2024/01/21 02:19:41;;;;;;;;;23.67;18.33;;;;;2.59;58.07;101949.34;5050744;28;45225;-78
2024/01/21 02:22:06;;;;;;;;;24.00;19.33;;;;;2.55;58.30;101928.56;5047978;28;45222;-76
2024/01/21 02:24:33;;;;;;;;;26.33;22.00;;;;;2.55;57.94;101913.66;5049719;28;45172;-75
2024/01/21 02:26:58;;;;;;;;;18.33;13.33;;;;;2.57;58.35;101924.94;5052014;28;45247;-78
2024/01/21 02:29:24;;;;;;;;;24.33;22.00;;;;;2.56;57.90;101912.75;5051060;28;45144;-75
2024/01/21 02:31:54;;;;;;;;;28.67;27.33;;;;;2.69;58.17;101942.81;5050796;28;45130;-74
2024/01/21 02:34:20;;;;;;;;;27.33;23.67;;;;;2.66;58.14;101942.97;5045728;28;47615;-75
2024/01/21 02:36:46;;;;;;;;;28.67;22.67;;;;;2.58;58.19;101913.53;5044901;28;45296;-77
2024/01/21 02:39:12;;;;;;;;;23.33;19.33;;;;;2.59;57.69;101915.22;5050838;28;44855;-77
2024/01/21 02:41:37;;;;;;;;;30.67;25.33;;;;;2.20;57.66;101860.00;5051170;28;44910;-76
2024/01/21 02:44:03;;;;;;;;;20.67;20.67;;;;;2.80;57.65;101949.38;5016107;28;47136;-77
2024/01/21 02:46:28;;;;;;;;;25.33;25.33;;;;;2.85;57.47;101952.69;5052136;28;44919;-76
2024/01/21 02:48:53;;;;;;;;;40.00;29.67;;;;;2.84;57.57;101937.84;5034856;28;44943;-77
2024/01/21 02:51:19;;;;;;;;;21.00;19.67;;;;;2.85;57.81;101939.56;5032322;28;45236;-78
2024/01/21 02:53:44;;;;;;;;;24.33;24.33;;;;;2.63;57.83;101903.72;5050103;28;45405;-77
2024/01/21 02:56:21;;;;;;;;;30.33;26.00;;;;;2.79;57.83;101918.78;5049808;28;45048;-76
2024/01/21 02:58:46;;;;;;;;;32.33;27.33;;;;;2.79;57.41;101916.16;5051260;28;45327;-75
2024/01/21 03:01:13;;;;;;;;;30.33;28.33;;;;;2.97;57.29;101941.63;5049320;28;45255;-78
2024/01/21 03:03:38;;;;;;;;;28.00;23.33;;;;;2.75;57.70;101916.31;5051548;28;45263;-76
2024/01/21 03:06:04;;;;;;;;;22.00;17.67;;;;;2.73;57.33;101896.28;5050698;28;44921;-75
2024/01/21 03:08:29;;;;;;;;;29.33;28.00;;;;;2.86;57.36;101917.63;5032252;28;45389;-75
2024/01/21 03:10:54;;;;;;;;;28.00;22.67;;;;;2.57;57.92;101874.22;5044124;28;45444;-75
2024/01/21 03:13:20;;;;;;;;;30.33;27.67;;;;;2.83;57.38;101908.09;5050140;28;46165;-75
2024/01/21 03:15:45;;;;;;;;;22.00;20.00;;;;;2.83;57.63;101894.13;5047010;28;45156;-78
2024/01/21 03:18:10;;;;;;;;;30.00;27.67;;;;;2.82;57.31;101888.03;5050653;28;45421;-75
2024/01/21 03:20:36;;;;;;;;;23.67;20.00;;;;;2.86;57.04;101902.72;5051019;28;45266;-76
2024/01/21 03:23:02;;;;;;;;;32.00;27.00;;;;;2.80;57.08;101899.47;5050578;28;45709;-77
2024/01/21 03:25:27;;;;;;;;;32.33;22.00;;;;;2.68;57.44;101880.72;5034163;28;45701;-75
2024/01/21 03:27:52;;;;;;;;;22.00;21.00;;;;;2.75;57.40;101900.53;5052315;28;44979;-77
2024/01/21 03:30:18;;;;;;;;;26.33;22.33;;;;;2.63;57.21;101873.97;5052151;28;45221;-76
2024/01/21 03:32:43;;;;;;;;;29.00;25.00;;;;;2.68;57.02;101874.63;5047823;28;45207;-77
2024/01/21 03:35:08;;;;;;;;;24.33;22.67;;;;;2.88;57.13;101918.41;5031194;28;44986;-76
2024/01/21 03:37:34;;;;;;;;;31.33;23.67;;;;;2.88;56.75;101918.41;5036074;28;45218;-76
2024/01/21 03:39:59;;;;;;;;;30.67;23.67;;;;;2.63;57.43;101887.97;5051617;28;45151;-76
2024/01/21 03:42:24;;;;;;;;;31.67;22.33;;;;;2.83;56.96;101929.13;5049505;28;46340;-76
2024/01/21 03:44:50;;;;;;;;;33.33;24.33;;;;;2.73;57.42;101928.66;5053511;28;45125;-75
2024/01/21 03:47:15;;;;;;;;;26.33;20.33;;;;;2.87;57.96;101935.94;5048921;28;45497;-76
2024/01/21 03:49:41;;;;;;;;;27.00;25.33;;;;;2.86;57.21;101943.88;5035811;28;45212;-76
2024/01/21 03:52:06;;;;;;;;;25.33;23.67;;;;;2.79;57.65;101934.53;5055673;28;45280;-77
2024/01/21 03:54:32;;;;;;;;;27.33;25.33;;;;;2.37;57.65;101875.91;5054257;28;45033;-77
2024/01/21 03:56:58;;;;;;;;;31.00;24.67;;;;;2.80;57.93;101933.63;5054764;28;45081;-78
2024/01/21 03:59:23;;;;;;;;;32.33;27.00;;;;;2.39;58.08;101867.97;5054257;28;45411;-75
2024/01/21 04:01:49;;;;;;;;;29.00;24.33;;;;;2.65;58.28;101912.38;5055976;28;46126;-74
2024/01/21 04:04:15;;;;;;;;;29.33;24.67;;;;;2.67;57.98;101914.94;5052458;28;45210;-77
2024/01/21 04:06:42;;;;;;;;;26.33;23.33;;;;;2.86;57.85;101930.75;5056399;28;46264;-76
2024/01/21 04:09:08;;;;;;;;;32.67;27.67;;;;;2.87;57.64;101935.09;5052839;28;46512;-77
2024/01/21 04:11:34;;;;;;;;;28.67;22.33;;;;;2.88;57.94;101934.16;5035493;28;47929;-76
2024/01/21 04:13:59;;;;;;;;;27.00;23.00;;;;;2.74;57.74;101904.09;5046062;28;45266;-78
2024/01/21 04:16:24;;;;;;;;;26.00;21.00;;;;;2.94;57.16;101926.03;5052879;28;45045;-75
2024/01/21 04:18:50;;;;;;;;;23.67;21.67;;;;;2.94;57.48;101920.75;5052828;28;44997;-76
2024/01/21 04:21:15;;;;;;;;;28.00;21.67;;;;;2.77;58.10;101887.34;5033905;28;46798;-76
2024/01/21 04:23:40;;;;;;;;;23.00;18.00;;;;;2.95;57.37;101904.09;5034166;28;45017;-75
2024/01/21 04:26:06;;;;;;;;;33.67;24.33;;;;;2.79;57.12;101876.78;5052230;28;45326;-75
2024/01/21 04:28:31;;;;;;;;;24.50;18.00;;;;;2.81;57.57;101874.97;5053798;28;45338;-76
2024/01/21 04:30:57;;;;;;;;;25.33;21.00;;;;;2.89;56.83;101886.81;5047876;28;45408;-76
2024/01/21 04:33:22;;;;;;;;;27.33;25.33;;;;;2.99;56.46;101897.75;5052195;28;45015;-75
2024/01/21 04:35:47;;;;;;;;;26.33;24.00;;;;;2.90;56.76;101878.03;5051602;28;45381;-78
2024/01/21 04:38:13;;;;;;;;;29.00;20.67;;;;;2.82;56.29;101869.63;5053333;28;44971;-75
2024/01/21 04:40:38;;;;;;;;;23.33;17.67;;;;;2.73;56.15;101839.38;5052825;28;45298;-75
2024/01/21 04:43:03;;;;;;;;;21.00;19.00;;;;;2.99;55.78;101871.50;5053308;28;45215;-77
2024/01/21 04:45:29;;;;;;;;;21.00;14.67;;;;;2.96;55.19;101842.75;5051880;28;45198;-77
2024/01/21 04:47:54;;;;;;;;;18.00;17.00;;;;;2.95;54.83;101835.78;5044278;28;45553;-76
2024/01/21 04:50:20;;;;;;;;;24.00;21.00;;;;;2.78;54.73;101798.91;5050817;28;45082;-75
2024/01/21 04:52:45;;;;;;;;;18.67;17.00;;;;;2.98;54.22;101833.88;5053811;28;45318;-76
2024/01/21 04:55:11;;;;;;;;;18.33;17.00;;;;;2.89;54.32;101825.56;5050510;28;45027;-76
2024/01/21 04:57:37;;;;;;;;;22.67;16.67;;;;;3.16;53.31;101876.84;5032777;28;45190;-77
2024/01/21 05:00:03;;;;;;;;;19.33;15.67;;;;;3.10;53.34;101856.13;5052430;28;45636;-76
2024/01/21 05:02:28;;;;;;;;;17.33;13.67;;;;;3.22;53.29;101863.47;5052940;28;45002;-77
2024/01/21 05:04:54;;;;;;;;;19.67;14.67;;;;;3.12;52.74;101828.00;5051164;28;45237;-77
2024/01/21 05:07:19;;;;;;;;;17.00;16.33;;;;;3.30;52.81;101847.34;5033552;28;45360;-76
2024/01/21 05:09:44;;;;;;;;;17.00;14.00;;;;;3.21;52.91;101822.34;5049761;28;47238;-77
2024/01/21 05:12:10;;;;;;;;;19.00;18.67;;;;;3.34;52.20;101835.75;5049852;28;45270;-77
2024/01/21 05:14:37;;;;;;;;;15.00;13.67;;;;;3.37;51.84;101827.72;5048812;28;45631;-76
2024/01/21 05:17:03;;;;;;;;;11.67;11.67;;;;;3.40;51.91;101845.13;5036749;28;45316;-77
2024/01/21 05:19:28;;;;;;;;;17.00;11.67;;;;;3.46;52.22;101835.19;5054674;28;45196;-76
2024/01/21 05:21:53;;;;;;;;;17.67;17.67;;;;;3.49;51.86;101834.19;5048751;28;44988;-76
2024/01/21 05:24:19;;;;;;;;;13.67;13.67;;;;;3.35;51.86;101790.16;5052499;28;45458;-78
2024/01/21 05:26:45;;;;;;;;;16.00;14.67;;;;;3.57;51.79;101822.38;5056218;28;45330;-77
2024/01/21 05:29:11;;;;;;;;;14.33;13.00;;;;;3.34;51.62;101783.19;5048442;28;45540;-75
2024/01/21 05:31:37;;;;;;;;;17.67;13.33;;;;;3.62;52.04;101823.03;5045899;28;45795;-74
2024/01/21 05:34:02;;;;;;;;;13.67;12.67;;;;;3.77;51.75;101823.19;5051749;28;45315;-78
2024/01/21 05:36:28;;;;;;;;;21.00;16.67;;;;;3.73;52.37;101811.97;5046978;28;45426;-78
2024/01/21 05:38:54;;;;;;;;;14.67;13.00;;;;;3.81;51.96;101796.69;5044782;28;45938;-75
2024/01/21 05:41:19;;;;;;;;;14.00;11.67;;;;;3.80;52.03;101781.81;5051047;28;45220;-76
2024/01/21 05:43:45;;;;;;;;;17.33;13.67;;;;;3.58;52.02;101744.34;5048963;28;45077;-74
2024/01/21 05:46:10;;;;;;;;;13.67;13.33;;;;;3.89;52.85;101793.69;5041556;28;45284;-75
2024/01/21 05:48:35;;;;;;;;;16.00;13.67;;;;;3.91;52.58;101804.97;5048182;28;45503;-76
2024/01/21 05:51:01;;;;;;;;;13.33;8.67;;;;;3.92;52.94;101818.06;5038232;28;45033;-75
2024/01/21 05:53:26;;;;;;;;;12.67;12.67;;;;;4.01;53.86;101816.78;5043464;28;45113;-76
2024/01/21 05:55:51;;;;;;;;;13.00;11.33;;;;;3.97;53.29;101837.09;5038513;28;45124;-77
2024/01/21 05:58:17;;;;;;;;;14.00;13.67;;;;;4.06;53.53;101842.84;5035568;28;45235;-79
2024/01/21 06:00:42;;;;;;;;;14.33;13.33;;;;;4.08;53.55;101828.69;5030504;28;45403;-79
2024/01/21 06:03:08;;;;;;;;;13.67;13.67;;;;;3.94;54.06;101824.09;5028962;28;45149;-78
2024/01/21 06:05:33;;;;;;;;;12.33;9.67;;;;;4.10;54.35;101862.81;5048977;28;44989;-77
2024/01/21 06:07:59;;;;;;;;;14.67;13.33;;;;;3.98;54.51;101825.63;5039005;28;45555;-77
2024/01/21 06:10:24;;;;;;;;;12.00;12.00;;;;;4.04;54.57;101831.56;5045635;28;45008;-76
2024/01/21 06:12:49;;;;;;;;;15.00;12.00;;;;;4.04;54.96;101821.03;5045621;28;45483;-76
2024/01/21 06:15:15;;;;;;;;;13.33;12.00;;;;;4.11;54.00;101848.72;5046175;28;45177;-76
2024/01/21 06:17:40;;;;;;;;;16.33;13.33;;;;;3.87;54.17;101814.81;5039519;28;45399;-76
2024/01/21 06:20:07;;;;;;;;;15.67;13.00;;;;;4.13;54.75;101836.34;5039830;28;45286;-77
2024/01/21 06:22:32;;;;;;;;;15.00;13.67;;;;;4.12;55.15;101838.13;5033731;28;45459;-79
2024/01/21 06:24:58;;;;;;;;;14.00;11.33;;;;;4.10;54.70;101831.25;5032148;28;45361;-77
2024/01/21 06:27:23;;;;;;;;;14.00;11.67;;;;;3.94;54.71;101808.31;5032937;28;46063;-76
2024/01/21 06:29:49;;;;;;;;;13.67;10.00;;;;;4.16;55.52;101841.44;5047972;28;45263;-78
2024/01/21 06:32:14;;;;;;;;;14.00;12.33;;;;;4.30;55.11;101849.53;5044400;28;45065;-76
2024/01/21 06:34:39;;;;;;;;;16.67;13.33;;;;;3.71;55.07;101750.72;5052718;28;45527;-78
2024/01/21 06:37:07;;;;;;;;;15.33;12.00;;;;;4.12;55.45;101837.28;5053065;28;45900;-76
2024/01/21 06:39:32;;;;;;;;;12.33;12.00;;;;;4.12;54.67;101829.38;5043918;28;45148;-77
2024/01/21 06:41:58;;;;;;;;;14.67;13.33;;;;;4.29;54.93;101850.47;5049029;28;45230;-77
2024/01/21 06:44:23;;;;;;;;;15.00;15.00;;;;;4.30;56.32;101828.47;5048755;28;45314;-77
2024/01/21 06:46:50;;;;;;;;;13.67;12.67;;;;;4.29;56.41;101850.47;5052442;28;45596;-76
2024/01/21 06:49:17;;;;;;;;;13.00;13.00;;;;;4.12;55.97;101834.66;5052428;28;45407;-77
2024/01/21 06:51:54;;;;;;;;;21.67;15.33;;;;;4.24;56.59;101857.75;5052660;28;44942;-77
2024/01/21 06:54:21;;;;;;;;;19.00;13.67;;;;;4.18;57.33;101865.91;5052304;28;45356;-77
2024/01/21 06:56:46;;;;;;;;;14.67;13.33;;;;;4.18;57.13;101876.44;5050214;28;46351;-77
2024/01/21 06:59:12;;;;;;;;;15.67;13.00;;;;;4.06;57.94;101861.28;5049486;28;45288;-77
2024/01/21 07:01:37;;;;;;;;;15.00;13.00;;;;;3.96;57.56;101834.53;5051929;28;45215;-76
2024/01/21 07:04:03;;;;;;;;;12.33;12.33;;;;;4.09;58.43;101854.06;5051674;28;45311;-77
2024/01/21 07:06:28;;;;;;;;;16.00;11.67;;;;;4.10;58.14;101847.03;5050562;28;45602;-75
2024/01/21 07:08:53;;;;;;;;;14.33;10.67;;;;;4.12;58.53;101834.66;5046910;28;45653;-75
2024/01/21 07:11:19;;;;;;;;;16.00;12.00;;;;;3.79;58.63;101801.16;5049751;28;45116;-76
2024/01/21 07:13:45;;;;;;;;;16.00;13.00;;;;;4.01;59.10;101852.75;5050523;28;45195;-75
2024/01/21 07:16:10;;;;;;;;;16.00;13.67;;;;;3.89;58.34;101828.72;5049307;28;45038;-78
2024/01/21 07:18:35;;;;;;;;;15.67;15.00;;;;;4.17;59.13;101890.53;5045700;28;45602;-77
2024/01/21 07:21:02;;;;;;;;;13.67;13.33;;;;;4.17;58.98;101896.66;5048716;28;45072;-78
2024/01/21 07:23:27;;;;;;;;;12.00;10.00;;;;;4.20;59.00;101895.63;5046610;28;45464;-75
2024/01/21 07:25:53;;;;;;;;;15.00;14.00;;;;;4.04;58.94;101866.59;5050301;28;46757;-75
2024/01/21 07:28:18;;;;;;;;;13.33;9.00;;;;;4.24;58.77;101894.59;5047529;28;45518;-75
2024/01/21 07:30:45;;;;;;;;;14.00;10.67;;;;;4.27;58.44;101891.81;5047565;28;45169;-77
2024/01/21 07:33:10;;;;;;;;;14.67;13.33;;;;;3.90;58.51;101835.69;5050966;28;45220;-76
2024/01/21 07:35:36;;;;;;;;;10.33;10.33;;;;;3.67;59.15;101791.25;5050165;28;45375;-75
2024/01/21 07:38:01;;;;;;;;;19.33;13.33;;;;;3.94;58.77;101845.13;5047752;28;45543;-76
2024/01/21 07:40:27;;;;;;;;;12.33;12.33;;;;;3.88;58.68;101815.66;5051213;28;45445;-75
2024/01/21 07:42:52;;;;;;;;;13.00;13.00;;;;;4.12;57.77;101837.28;5040416;28;45190;-74
2024/01/21 07:45:18;;;;;;;;;13.33;12.00;;;;;4.35;58.29;101878.25;5045616;28;47327;-76
2024/01/21 07:47:43;;;;;;;;;10.00;10.00;;;;;4.27;57.94;101879.50;5049826;28;44875;-78
2024/01/21 07:50:09;;;;;;;;;16.33;13.67;;;;;4.40;59.23;101921.84;5050082;28;45255;-78
2024/01/21 07:52:34;;;;;;;;;15.33;14.00;;;;;4.25;58.51;101901.56;5050595;28;44898;-76
2024/01/21 07:55:00;;;;;;;;;12.33;12.33;;;;;4.45;58.39;101935.66;5050513;28;45548;-75
2024/01/21 07:57:25;;;;;;;;;13.67;13.00;;;;;4.39;58.34;101922.78;5049516;28;45167;-75
2024/01/21 07:59:50;;;;;;;;;15.33;13.00;;;;;4.36;58.21;101914.19;5050657;28;45301;-76
2024/01/21 08:02:16;;;;;;;;;16.00;14.00;;;;;4.37;58.47;101902.72;5050157;28;45460;-75
2024/01/21 08:04:42;;;;;;;;;11.67;10.67;;;;;4.61;57.82;101940.16;5034951;28;47002;-77
2024/01/21 08:07:08;;;;;;;;;13.00;13.00;;;;;4.56;58.46;101930.69;5046855;28;45050;-77
2024/01/21 08:09:33;;;;;;;;;13.00;12.33;;;;;4.60;58.78;101936.66;5048890;28;45275;-78
2024/01/21 08:11:59;;;;;;;;;13.00;10.67;;;;;4.64;58.53;101934.75;5051027;28;45230;-76
2024/01/21 08:14:24;;;;;;;;;16.33;13.67;;;;;4.66;57.94;101935.50;5049321;28;45089;-77
2024/01/21 08:16:50;;;;;;;;;16.67;14.33;;;;;4.56;58.44;101919.31;5048523;28;45203;-78
2024/01/21 08:19:17;;;;;;;;;13.00;12.00;;;;;4.76;57.39;101958.66;5042807;28;45075;-77
2024/01/21 08:21:42;;;;;;;;;11.67;10.67;;;;;4.76;58.39;101947.28;5050697;28;45263;-76
2024/01/21 08:24:08;;;;;;;;;3.33;2.67;;;;;4.79;58.56;101940.06;5048300;28;46085;-78
2024/01/21 08:26:34;;;;;;;;;13.67;10.67;;;;;4.68;58.50;101917.84;5050777;28;45165;-76
2024/01/21 08:28:59;;;;;;;;;15.00;14.00;;;;;4.55;58.40;101886.84;5054100;28;44938;-78
2024/01/21 08:31:25;;;;;;;;;14.00;11.67;;;;;4.87;58.25;101947.59;5054868;28;45317;-77
2024/01/21 08:33:50;;;;;;;;;14.00;11.00;;;;;4.77;57.89;101935.81;5044993;28;45428;-78
2024/01/21 08:36:15;;;;;;;;;16.33;11.67;;;;;4.84;58.70;101958.31;5054176;28;45223;-77
2024/01/21 08:38:41;;;;;;;;;10.67;10.67;;;;;5.02;58.01;101988.16;5053526;28;45065;-76
2024/01/21 08:41:06;;;;;;;;;15.33;12.33;;;;;4.81;58.41;101961.94;5053391;28;45230;-75
2024/01/21 08:43:32;;;;;;;;;15.00;10.67;;;;;5.04;58.29;102004.72;5051703;28;46356;-78
2024/01/21 08:45:59;;;;;;;;;13.67;12.00;;;;;5.01;59.18;102020.72;5053292;28;44982;-75
2024/01/21 08:48:24;;;;;;;;;14.00;10.33;;;;;4.98;58.92;102032.22;5054376;28;45128;-74
2024/01/21 08:50:50;;;;;;;;;12.67;12.67;;;;;5.09;58.81;102034.34;5054425;28;45091;-78
2024/01/21 08:53:17;;;;;;;;;10.33;10.33;;;;;5.10;59.11;102031.63;5030113;28;46642;-76
2024/01/21 08:55:42;;;;;;;;;15.00;11.67;;;;;4.96;59.26;102007.75;5048656;28;44985;-77
2024/01/21 08:58:07;;;;;;;;;12.00;10.33;;;;;5.18;58.80;102033.88;5051933;28;45209;-75
2024/01/21 09:00:33;;;;;;;;;11.00;10.33;;;;;5.16;59.12;102036.56;5051863;28;45192;-76
2024/01/21 09:02:58;;;;;;;;;10.00;9.33;;;;;5.17;59.32;102032.16;5034399;28;45476;-77
2024/01/21 09:05:24;;;;;;;;;10.33;9.33;;;;;5.14;59.01;102027.91;5052897;28;45013;-75
2024/01/21 09:07:49;;;;;;;;;15.67;13.33;;;;;5.25;59.77;102039.69;5052101;28;45509;-76
2024/01/21 09:10:14;;;;;;;;;15.00;10.67;;;;;5.20;59.56;102026.72;5036144;28;45177;-75
2024/01/21 09:12:40;;;;;;;;;13.00;12.33;;;;;5.15;59.46;102018.22;5053915;28;45565;-78
2024/01/21 09:15:06;;;;;;;;;14.67;12.00;;;;;5.19;59.75;102022.38;5051273;28;45400;-79
2024/01/21 09:17:32;;;;;;;;;11.33;10.67;;;;;5.28;59.42;102039.53;5054508;28;45303;-77
2024/01/21 09:19:58;;;;;;;;;9.00;9.00;;;;;5.33;59.98;102033.09;5051959;28;45368;-77
2024/01/21 09:22:23;;;;;;;;;12.33;12.00;;;;;5.39;58.92;102035.41;5051136;28;45138;-77
2024/01/21 09:24:48;;;;;;;;;13.33;13.33;;;;;5.47;59.00;102041.16;5056114;28;45812;-77
2024/01/21 09:27:14;;;;;;;;;14.67;11.00;;;;;5.49;58.62;102025.25;5052846;28;44978;-77
2024/01/21 09:29:39;;;;;;;;;9.33;8.33;;;;;5.48;59.31;102034.09;5034420;28;45183;-78
2024/01/21 09:32:05;;;;;;;;;11.67;11.33;;;;;5.57;59.49;102048.56;5051196;28;46358;-78
2024/01/21 09:34:30;;;;;;;;;11.67;10.67;;;;;5.26;58.85;101991.31;5052850;28;45044;-77
2024/01/21 09:36:56;;;;;;;;;13.33;10.00;;;;;5.59;59.43;102038.78;5050465;28;45886;-76
2024/01/21 09:39:21;;;;;;;;;16.67;13.67;;;;;5.56;58.24;102013.44;5051878;28;45338;-78
2024/01/21 09:41:49;;;;;;;;;12.33;11.00;;;;;5.74;58.16;102023.00;5051147;28;46005;-77
2024/01/21 09:44:17;;;;;;;;;10.67;10.67;;;;;5.82;59.08;102006.78;5049916;28;45226;-77
2024/01/21 09:46:42;;;;;;;;;14.00;12.00;;;;;5.93;58.33;102015.00;5012294;28;45092;-78
2024/01/21 09:49:10;;;;;;;;;15.33;11.33;;;;;5.95;58.34;102010.47;5050860;28;45292;-80
2024/01/21 09:51:37;;;;;;;;;12.00;10.33;;;;;6.06;58.35;102023.09;5029097;28;46107;-77
2024/01/21 09:54:05;;;;;;;;;11.33;11.00;;;;;5.99;57.70;101998.81;5008976;28;45963;-80
2024/01/21 09:56:30;;;;;;;;;11.33;10.67;;;;;5.76;57.68;101962.22;5018761;28;45585;-78
2024/01/21 09:58:57;;;;;;;;;11.33;9.67;;;;;6.34;57.42;102048.84;5035891;28;45448;-77
2024/01/21 10:01:23;;;;;;;;;17.67;14.67;;;;;6.33;57.22;102063.84;5028747;28;45628;-78
2024/01/21 10:03:49;;;;;;;;;11.33;11.33;;;;;6.33;57.22;102050.63;5048175;28;45117;-78
2024/01/21 10:06:16;;;;;;;;;14.33;12.33;;;;;6.07;56.92;102020.38;5053628;28;44990;-79
2024/01/21 10:08:49;;;;;;;;;13.00;10.33;;;;;6.16;57.95;102034.84;5051351;28;45330;-77
2024/01/21 10:11:15;;;;;;;;;10.00;10.00;;;;;6.04;57.73;102030.25;5053757;28;46144;-79
2024/01/21 10:13:42;;;;;;;;;11.67;10.00;;;;;6.38;57.99;102076.78;5047355;28;45085;-80
2024/01/21 10:16:10;;;;;;;;;12.00;9.67;;;;;6.40;57.96;102066.97;5049683;28;45125;-81
2024/01/21 10:18:35;;;;;;;;;10.00;10.00;;;;;6.39;57.82;102071.41;5048179;28;45139;-76
2024/01/21 10:21:05;;;;;;;;;12.67;9.67;;;;;6.19;58.22;102029.41;5036075;28;45818;-78
2024/01/21 10:23:32;;;;;;;;;10.33;10.33;;;;;6.40;58.23;102064.34;5046369;28;44950;-81
2024/01/21 10:25:58;;;;;;;;;9.33;8.00;;;;;6.35;58.02;102055.81;5034835;28;44957;-76
2024/01/21 10:28:24;;;;;;;;;12.67;12.00;;;;;6.43;58.02;102045.72;5052621;28;44974;-77
2024/01/21 10:30:49;;;;;;;;;14.00;11.00;;;;;6.10;58.64;101993.81;5052541;28;46102;-77
2024/01/21 10:33:15;;;;;;;;;11.00;8.00;;;;;6.49;58.80;102052.44;5034717;28;45029;-79
2024/01/21 10:35:41;;;;;;;;;9.00;9.00;;;;;6.57;59.13;102042.25;5052246;28;45116;-77
2024/01/21 10:38:13;;;;;;;;;9.00;5.00;;;;;6.45;58.38;102008.63;5052468;28;45100;-79
2024/01/21 10:40:43;;;;;;;;;11.67;11.33;;;;;6.66;58.12;102026.75;5048551;28;45582;-79
2024/01/21 10:43:12;;;;;;;;;11.67;11.00;;;;;6.72;58.73;102022.91;5050842;28;45240;-77
2024/01/21 10:45:38;;;;;;;;;12.33;11.00;;;;;6.84;58.65;102022.22;5052408;28;45189;-74
2024/01/21 10:48:05;;;;;;;;;11.00;10.00;;;;;6.56;58.41;101962.16;5050103;28;45253;-78
2024/01/21 10:50:30;;;;;;;;;13.33;11.67;;;;;6.82;58.84;101986.25;5051526;28;45269;-80
2024/01/21 10:52:57;;;;;;;;;10.67;10.67;;;;;6.96;58.73;102004.78;5043809;28;45147;-78
2024/01/21 10:55:23;;;;;;;;;14.00;13.00;;;;;7.01;58.76;101993.00;5027576;28;45458;-79
2024/01/21 10:57:50;;;;;;;;;14.33;12.33;;;;;6.57;59.36;101923.38;5026292;28;45467;-76
2024/01/21 11:00:17;;;;;;;;;21.33;19.33;;;;;7.03;59.31;101989.41;5030015;28;46125;-80
2024/01/21 11:03:23;;;;;;;;;13.00;12.00;;;;;7.14;59.30;101992.25;5030337;28;45756;-77
2024/01/21 11:05:52;;;;;;;;;10.67;9.67;;;;;7.12;59.38;101984.41;5035760;28;45361;-79
2024/01/21 11:08:24;;;;;;;;;11.33;10.33;;;;;7.24;59.44;101993.44;5031332;28;45474;-80
2024/01/21 11:11:22;;;;;;;;;12.00;9.67;;;;;7.36;59.27;101997.97;5034598;28;45558;-77